Time;durP1;ratioP1;P1;durP2;ratioP2;P2;SDS_P1;SDS_P2;PMS_P1;PMS_P2;Temp;Humidity;BMP_temperature;BMP_pressure;BME280_temperature;BME280_humidity;BME280_pressure;Samples;Min_cycle;Max_cycle;Signal;HPM_P1;HPM_P2
2022/03/29 00:01:57;;;;;;;4.82;2.97;;;23.40;37.80;;;;;;4989787;28;20026;-50
2022/03/29 00:04:23;;;;;;;5.15;3.03;;;23.40;37.80;;;;;;5024312;28;20022;-52
2022/03/29 00:06:49;;;;;;;4.70;2.97;;;23.40;37.80;;;;;;5024041;28;20037;-51
2022/03/29 00:09:16;;;;;;;4.50;3.17;;;23.40;37.80;;;;;;5023979;28;20022;-51
2022/03/29 00:11:42;;;;;;;5.38;3.55;;;23.40;37.80;;;;;;5023925;28;20776;-52
2022/03/29 00:14:08;;;;;;;4.05;2.88;;;23.40;37.80;;;;;;5024039;28;20041;-51
2022/03/29 00:16:34;;;;;;;4.90;2.83;;;23.40;37.90;;;;;;5024251;28;20029;-52
2022/03/29 00:19:00;;;;;;;4.20;2.67;;;23.40;37.80;;;;;;5023950;28;20025;-51
2022/03/29 00:21:26;;;;;;;4.90;3.03;;;23.40;37.80;;;;;;5023811;28;20396;-52
2022/03/29 00:23:52;;;;;;;5.00;3.40;;;23.40;37.70;;;;;;5023473;28;20104;-51
2022/03/29 00:26:18;;;;;;;4.53;2.50;;;23.40;37.80;;;;;;5023386;28;20080;-51
2022/03/29 00:28:44;;;;;;;4.25;2.70;;;23.30;37.70;;;;;;5024019;28;20691;-51
2022/03/29 00:31:11;;;;;;;3.90;2.63;;;23.40;37.70;;;;;;5023939;28;20034;-50
2022/03/29 00:33:37;;;;;;;4.05;2.47;;;23.30;37.70;;;;;;5023431;28;20595;-51
2022/03/29 00:36:03;;;;;;;4.43;2.83;;;23.30;37.70;;;;;;5024050;28;20029;-51
2022/03/29 00:38:29;;;;;;;5.63;3.13;;;23.30;37.70;;;;;;5023190;28;20040;-51
2022/03/29 00:40:55;;;;;;;4.85;3.05;;;23.30;37.70;;;;;;5023484;28;20040;-51
2022/03/29 00:43:21;;;;;;;4.18;2.65;;;23.30;37.70;;;;;;5010319;28;20026;-50
2022/03/29 00:45:47;;;;;;;4.63;3.00;;;23.30;37.70;;;;;;5027666;28;20088;-51
2022/03/29 00:48:13;;;;;;;4.25;2.70;;;23.30;37.70;;;;;;5028309;28;20026;-51
2022/03/29 00:50:40;;;;;;;4.38;2.78;;;23.30;37.60;;;;;;5027018;28;20034;-52
2022/03/29 00:53:08;;;;;;;4.55;2.80;;;23.30;37.60;;;;;;5009517;28;20556;-50
2022/03/29 00:55:34;;;;;;;3.95;2.60;;;23.30;37.60;;;;;;5027564;28;20524;-50
2022/03/29 00:58:04;;;;;;;4.40;2.42;;;23.30;37.60;;;;;;5027104;28;20041;-51
2022/03/29 01:00:34;;;;;;;4.22;2.60;;;23.20;37.50;;;;;;5026430;28;20036;-50
2022/03/29 01:03:03;;;;;;;4.07;2.88;;;23.20;38.20;;;;;;5026458;28;20437;-51
2022/03/29 01:05:30;;;;;;;5.32;3.40;;;23.30;37.60;;;;;;5027218;28;20493;-50
2022/03/29 01:07:56;;;;;;;3.97;2.60;;;23.20;37.50;;;;;;5027109;28;20045;-49
2022/03/29 01:10:23;;;;;;;4.40;2.83;;;23.20;37.50;;;;;;4992920;28;20060;-50
2022/03/29 01:12:49;;;;;;;4.18;2.60;;;23.20;37.50;;;;;;5027355;28;20045;-51
2022/03/29 01:15:16;;;;;;;4.55;3.28;;;23.20;37.50;;;;;;5009512;28;20432;-51
2022/03/29 01:17:43;;;;;;;4.25;2.58;;;23.20;37.50;;;;;;5027050;28;20036;-52
2022/03/29 01:20:28;;;;;;;4.18;2.42;;;23.20;37.50;;;;;;5026968;28;20029;-51
2022/03/29 01:22:55;;;;;;;3.50;2.20;;;23.20;37.50;;;;;;5025694;28;20076;-52
2022/03/29 01:25:25;;;;;;;4.07;2.38;;;23.20;37.50;;;;;;5027094;28;20069;-50
2022/03/29 01:27:53;;;;;;;4.40;2.83;;;23.20;38.10;;;;;;5026800;28;20559;-51
2022/03/29 01:30:20;;;;;;;4.00;2.55;;;23.20;37.50;;;;;;5026939;28;20036;-50
2022/03/29 01:32:52;;;;;;;4.22;2.65;;;23.20;37.50;;;;;;5026661;28;20087;-52
2022/03/29 01:35:23;;;;;;;4.55;2.85;;;23.20;37.40;;;;;;5026755;28;20646;-51
2022/03/29 01:37:49;;;;;;;4.32;2.65;;;23.20;37.40;;;;;;5026672;28;20041;-50
2022/03/29 01:40:19;;;;;;;3.97;2.40;;;23.20;37.40;;;;;;5026346;28;20021;-50
2022/03/29 01:42:56;;;;;;;4.18;2.67;;;23.20;37.40;;;;;;5026754;28;20059;-50
2022/03/29 01:45:24;;;;;;;4.60;2.80;;;23.20;37.50;;;;;;5025797;28;20026;-51
2022/03/29 01:47:50;;;;;;;4.07;2.35;;;23.20;37.50;;;;;;5026450;28;20270;-52
2022/03/29 01:50:16;;;;;;;4.15;2.78;;;23.20;37.40;;;;;;5026143;28;20025;-51
2022/03/29 01:52:47;;;;;;;3.63;2.55;;;23.10;37.40;;;;;;5025811;28;20029;-51
2022/03/29 01:55:16;;;;;;;4.28;2.63;;;23.10;37.40;;;;;;5026194;28;20069;-50
2022/03/29 01:57:42;;;;;;;4.20;2.63;;;23.10;37.40;;;;;;5026361;28;20095;-51
2022/03/29 02:02:55;;;;;;;4.22;3.05;;;23.20;37.40;;;;;;5026117;28;20048;-50
2022/03/29 02:05:22;;;;;;;4.90;3.08;;;23.10;37.40;;;;;;5026151;28;20030;-50
2022/03/29 02:07:48;;;;;;;4.68;2.95;;;23.10;37.40;;;;;;5026156;28;20553;-51
2022/03/29 02:10:22;;;;;;;4.00;2.42;;;23.10;37.40;;;;;;5025681;28;20405;-51
2022/03/29 02:12:49;;;;;;;4.00;2.70;;;23.10;37.40;;;;;;5008185;28;20603;-51
2022/03/29 02:15:15;;;;;;;3.72;2.33;;;23.10;37.30;;;;;;5025656;28;20029;-50
2022/03/29 02:17:42;;;;;;;4.00;2.60;;;23.10;37.30;;;;;;5025755;28;20052;-50
2022/03/29 02:20:08;;;;;;;3.70;2.60;;;23.10;37.30;;;;;;5025546;28;20112;-50
2022/03/29 02:22:34;;;;;;;3.67;2.65;;;23.10;37.30;;;;;;5007834;28;20310;-50
2022/03/29 02:25:00;;;;;;;3.88;2.42;;;23.10;37.30;;;;;;5025691;28;20039;-52
2022/03/29 02:27:26;;;;;;;3.55;2.22;;;23.10;37.30;;;;;;5025065;28;20472;-51
2022/03/29 02:29:53;;;;;;;3.33;2.28;;;23.10;37.30;;;;;;5025639;28;20115;-50
2022/03/29 02:32:18;;;;;;;5.90;3.08;;;23.10;37.30;;;;;;5025607;28;20021;-51
2022/03/29 02:34:47;;;;;;;3.97;2.42;;;23.00;37.20;;;;;;5025595;28;20630;-51
2022/03/29 02:37:13;;;;;;;4.47;2.40;;;23.00;37.20;;;;;;5025230;28;20112;-51
2022/03/29 02:39:39;;;;;;;3.80;2.67;;;23.00;37.30;;;;;;5025093;28;20053;-50
2022/03/29 02:42:06;;;;;;;3.80;2.30;;;23.00;37.20;;;;;;5025885;28;20112;-51
2022/03/29 02:44:32;;;;;;;4.15;2.85;;;23.00;37.20;;;;;;5025222;28;20401;-50
2022/03/29 02:46:58;;;;;;;4.13;2.70;;;23.00;37.20;;;;;;5025928;28;20386;-51
2022/03/29 02:49:25;;;;;;;4.80;2.60;;;23.00;37.20;;;;;;5025366;28;20029;-50
2022/03/29 02:51:51;;;;;;;4.47;2.90;;;23.00;37.20;;;;;;5024430;28;20060;-51
2022/03/29 02:54:17;;;;;;;4.10;2.50;;;23.00;37.20;;;;;;5025668;28;20029;-50
2022/03/29 02:56:43;;;;;;;4.15;2.60;;;23.00;37.20;;;;;;5024851;28;20320;-51
2022/03/29 02:59:09;;;;;;;3.83;2.67;;;23.00;37.20;;;;;;5025091;28;20644;-51
2022/03/29 03:01:35;;;;;;;3.40;2.28;;;23.00;37.10;;;;;;5024853;28;20041;-51
2022/03/29 03:04:00;;;;;;;3.80;2.50;;;23.00;37.10;;;;;;5024368;28;20508;-52
2022/03/29 03:06:26;;;;;;;3.75;2.55;;;23.00;37.10;;;;;;5024253;28;20045;-51
2022/03/29 03:08:52;;;;;;;4.05;2.40;;;23.00;37.10;;;;;;5024607;28;20029;-52
2022/03/29 03:11:18;;;;;;;3.65;2.47;;;23.00;37.10;;;;;;5024705;28;20124;-51
2022/03/29 03:13:43;;;;;;;3.78;2.47;;;23.00;37.10;;;;;;5024527;28;20040;-50
2022/03/29 03:16:09;;;;;;;3.33;2.08;;;23.00;37.10;;;;;;5007484;28;20079;-51
2022/03/29 03:18:36;;;;;;;4.18;2.25;;;23.00;37.10;;;;;;5006791;28;20508;-52
2022/03/29 03:21:02;;;;;;;3.55;2.50;;;23.00;37.10;;;;;;5013991;28;20346;-51
2022/03/29 03:23:28;;;;;;;3.83;2.53;;;22.90;37.10;;;;;;5024845;28;20096;-51
2022/03/29 03:25:54;;;;;;;3.38;2.15;;;23.00;37.10;;;;;;5025057;28;20032;-50
2022/03/29 03:28:20;;;;;;;4.00;2.20;;;23.00;37.20;;;;;;5007131;28;20040;-52
2022/03/29 03:30:46;;;;;;;4.10;2.70;;;23.00;37.10;;;;;;5024718;28;20522;-52
2022/03/29 03:33:11;;;;;;;4.07;2.28;;;22.90;37.10;;;;;;5007037;28;20032;-52
2022/03/29 03:35:38;;;;;;;4.63;3.17;;;22.90;37.10;;;;;;5024680;28;20624;-51
2022/03/29 03:38:04;;;;;;;4.10;2.70;;;22.90;37.10;;;;;;5006931;28;20060;-51
2022/03/29 03:40:30;;;;;;;4.20;2.83;;;22.90;37.10;;;;;;5023926;28;20067;-52
2022/03/29 03:42:56;;;;;;;3.85;2.55;;;22.90;37.10;;;;;;5024262;28;20030;-52
2022/03/29 03:45:22;;;;;;;4.28;2.70;;;22.90;37.10;;;;;;5006906;28;20045;-50
2022/03/29 03:47:48;;;;;;;3.78;2.45;;;22.90;37.00;;;;;;5024037;28;20021;-49
2022/03/29 03:50:14;;;;;;;3.80;2.40;;;22.90;37.00;;;;;;5024248;28;20094;-52
2022/03/29 03:52:40;;;;;;;4.85;2.78;;;22.90;37.00;;;;;;5023600;28;20504;-52
2022/03/29 03:55:07;;;;;;;4.18;2.63;;;22.90;37.00;;;;;;5024257;28;20030;-50
2022/03/29 03:57:33;;;;;;;4.00;2.63;;;22.90;37.00;;;;;;5024556;28;20064;-52
2022/03/29 04:00:00;;;;;;;4.05;2.58;;;22.90;37.00;;;;;;5024306;28;20071;-51
2022/03/29 04:02:26;;;;;;;4.03;2.70;;;22.90;37.00;;;;;;5007649;28;20030;-52
2022/03/29 04:04:52;;;;;;;3.85;2.30;;;22.90;37.00;;;;;;5015783;28;20025;-52
2022/03/29 04:07:18;;;;;;;4.38;2.72;;;22.90;37.60;;;;;;5023714;28;20053;-51
2022/03/29 04:09:44;;;;;;;4.20;2.58;;;22.90;37.10;;;;;;5023829;28;20392;-51
2022/03/29 04:12:10;;;;;;;3.80;2.42;;;22.90;37.10;;;;;;5023721;28;20614;-51
2022/03/29 04:14:39;;;;;;;4.10;2.60;;;22.90;37.10;;;;;;5024457;28;20029;-52
2022/03/29 04:17:05;;;;;;;4.10;2.50;;;22.90;37.10;;;;;;5025037;28;20600;-52
2022/03/29 04:19:31;;;;;;;3.90;2.50;;;22.90;37.30;;;;;;5027708;28;20052;-50
2022/03/29 04:21:57;;;;;;;3.95;2.60;;;22.90;37.30;;;;;;5027663;28;20493;-52
2022/03/29 04:24:23;;;;;;;3.97;2.28;;;22.90;37.40;;;;;;5027567;28;20219;-53
2022/03/29 04:26:48;;;;;;;4.28;2.60;;;22.90;37.40;;;;;;5026856;28;20026;-51
2022/03/29 04:29:14;;;;;;;3.67;2.50;;;22.90;37.50;;;;;;5027045;28;20101;-52
2022/03/29 04:31:40;;;;;;;3.33;2.03;;;22.90;37.50;;;;;;5009788;28;20045;-51
2022/03/29 04:34:06;;;;;;;3.80;2.35;;;23.00;37.50;;;;;;5027419;28;20029;-51
2022/03/29 04:36:32;;;;;;;3.63;2.75;;;23.00;37.50;;;;;;5026693;28;20026;-50
2022/03/29 04:38:58;;;;;;;3.92;2.30;;;23.00;37.40;;;;;;5026553;28;20052;-52
2022/03/29 04:41:27;;;;;;;8.70;2.35;;;23.00;37.40;;;;;;5008742;28;20037;-51
2022/03/29 04:43:53;;;;;;;9.93;4.85;;;23.00;37.30;;;;;;5026473;28;20528;-52
2022/03/29 04:46:19;;;;;;;13.75;5.85;;;23.10;37.70;;;;;;5026533;28;20080;-51
2022/03/29 04:48:45;;;;;;;11.52;6.00;;;23.10;38.00;;;;;;5007230;28;20056;-49
2022/03/29 04:51:11;;;;;;;15.00;6.38;;;23.20;38.20;;;;;;5026873;28;20037;-51
2022/03/29 04:53:37;;;;;;;16.77;6.47;;;23.20;38.40;;;;;;5022923;28;20038;-51
2022/03/29 04:56:04;;;;;;;15.65;6.88;;;23.20;38.40;;;;;;5027417;28;20091;-52
2022/03/29 04:58:30;;;;;;;17.27;8.10;;;23.20;38.50;;;;;;5026998;28;20349;-51
2022/03/29 05:00:58;;;;;;;13.40;7.45;;;23.20;38.40;;;;;;5026264;28;20029;-51
2022/03/29 05:03:24;;;;;;;19.63;7.80;;;23.30;38.30;;;;;;5026028;28;20590;-50
2022/03/29 05:05:49;;;;;;;21.27;7.32;;;23.30;38.20;;;;;;5025725;28;20120;-51
2022/03/29 05:08:15;;;;;;;12.60;6.32;;;23.30;38.10;;;;;;5026159;28;20049;-51
2022/03/29 05:10:41;;;;;;;13.43;6.95;;;23.40;38.10;;;;;;5008218;28;20076;-52
2022/03/29 05:13:07;;;;;;;13.63;6.40;;;23.40;37.90;;;;;;5026259;28;20053;-50
2022/03/29 05:15:33;;;;;;;10.05;5.20;;;23.40;37.70;;;;;;5026250;28;20017;-50
2022/03/29 05:17:59;;;;;;;12.10;5.60;;;23.50;37.70;;;;;;5025728;28;20036;-51
2022/03/29 05:20:25;;;;;;;11.10;6.10;;;23.50;37.60;;;;;;5026153;28;20029;-52
2022/03/29 05:22:52;;;;;;;9.82;5.68;;;23.50;38.10;;;;;;5025978;28;20040;-50
2022/03/29 05:25:23;;;;;;;9.77;5.32;;;23.50;37.40;;;;;;5027178;28;20689;-52
2022/03/29 05:27:50;;;;;;;8.43;5.18;;;23.50;37.30;;;;;;5020205;28;20022;-52
2022/03/29 05:30:17;;;;;;;10.20;4.95;;;23.50;37.20;;;;;;5013671;28;20178;-52
2022/03/29 05:32:43;;;;;;;9.27;5.13;;;23.50;37.30;;;;;;5045869;28;20056;-51
2022/03/29 05:35:11;;;;;;;9.00;5.28;;;23.50;37.30;;;;;;5026886;28;20073;-51
2022/03/29 05:37:38;;;;;;;7.57;4.78;;;23.50;37.20;;;;;;5026596;28;20029;-51
2022/03/29 05:40:08;;;;;;;8.65;4.82;;;23.50;37.20;;;;;;5025606;28;20030;-50
2022/03/29 05:42:42;;;;;;;8.60;4.97;;;23.50;37.20;;;;;;5025953;28;20025;-52
2022/03/29 05:45:09;;;;;;;8.30;4.80;;;23.50;37.20;;;;;;5025746;28;20509;-51
2022/03/29 05:50:19;;;;;;;8.80;4.85;;;23.50;37.00;;;;;;5025023;28;20039;-50
2022/03/29 05:52:45;;;;;;;9.20;5.30;;;23.60;37.00;;;;;;5024705;28;20038;-51
2022/03/29 05:55:11;;;;;;;7.20;4.43;;;23.60;37.00;;;;;;5026584;28;20670;-50
2022/03/29 05:57:37;;;;;;;6.63;4.13;;;23.60;36.90;;;;;;5025661;28;20032;-51
2022/03/29 06:00:06;;;;;;;6.15;4.57;;;23.60;36.90;;;;;;5024996;28;20516;-50
2022/03/29 06:02:32;;;;;;;9.30;4.53;;;23.60;36.80;;;;;;5007963;28;20022;-50
2022/03/29 06:04:58;;;;;;;6.43;4.18;;;23.60;36.80;;;;;;5007575;28;20018;-51
2022/03/29 06:07:24;;;;;;;10.13;5.28;;;23.60;36.80;;;;;;5025792;28;20030;-51
2022/03/29 06:09:50;;;;;;;7.50;4.35;;;23.60;36.70;;;;;;5025317;28;20148;-50
2022/03/29 06:12:22;;;;;;;6.82;4.63;;;23.50;36.70;;;;;;5024743;28;20124;-50
2022/03/29 06:14:49;;;;;;;7.72;4.22;;;23.60;36.70;;;;;;5006928;28;20100;-51
2022/03/29 06:17:15;;;;;;;7.35;4.47;;;23.60;36.60;;;;;;5024402;28;20027;-51
2022/03/29 06:19:43;;;;;;;6.15;4.13;;;23.60;36.60;;;;;;5023939;28;20105;-50
2022/03/29 06:22:09;;;;;;;6.40;4.15;;;23.60;36.60;;;;;;5022430;28;20022;-50
2022/03/29 06:24:35;;;;;;;6.43;4.38;;;23.60;36.60;;;;;;5023935;28;20705;-50
2022/03/29 06:27:01;;;;;;;7.25;4.05;;;23.60;36.60;;;;;;5024233;28;20064;-50
2022/03/29 06:29:27;;;;;;;7.03;4.07;;;23.60;36.50;;;;;;5005976;28;20033;-50
2022/03/29 06:31:53;;;;;;;8.10;4.80;;;23.60;36.60;;;;;;5022328;28;20021;-52
2022/03/29 06:34:20;;;;;;;7.50;4.45;;;23.50;36.60;;;;;;5006630;28;20029;-52
2022/03/29 06:36:46;;;;;;;6.65;5.00;;;23.50;36.60;;;;;;5014919;28;20033;-51
2022/03/29 06:39:13;;;;;;;9.55;4.90;;;23.50;36.70;;;;;;5023000;28;20083;-51
2022/03/29 06:41:40;;;;;;;6.57;4.22;;;23.50;36.60;;;;;;5023965;28;20096;-51
2022/03/29 06:44:08;;;;;;;6.95;4.40;;;23.50;36.60;;;;;;5023808;28;20132;-52
2022/03/29 06:46:37;;;;;;;7.60;4.82;;;23.50;36.50;;;;;;5025004;28;20035;-51
2022/03/29 06:49:03;;;;;;;8.38;5.10;;;23.50;36.40;;;;;;5024568;28;20109;-52
2022/03/29 06:51:30;;;;;;;7.53;4.55;;;23.50;37.00;;;;;;5025349;28;20029;-52
2022/03/29 06:53:56;;;;;;;6.95;4.03;;;23.50;36.30;;;;;;5024761;28;20116;-50
2022/03/29 06:56:22;;;;;;;7.20;4.32;;;23.50;36.40;;;;;;5006874;28;20176;-52
2022/03/29 06:58:48;;;;;;;5.82;4.00;;;23.50;36.40;;;;;;5024541;28;20108;-50
2022/03/29 07:01:14;;;;;;;5.63;3.65;;;23.50;36.40;;;;;;5024278;28;20087;-51
2022/03/29 07:03:39;;;;;;;6.00;4.07;;;23.60;36.50;;;;;;5006760;28;20119;-51
2022/03/29 07:06:05;;;;;;;4.78;3.63;;;23.60;36.40;;;;;;5024964;28;20065;-50
2022/03/29 07:08:32;;;;;;;6.10;3.45;;;23.60;36.40;;;;;;5024146;28;20029;-50
2022/03/29 07:11:19;;;;;;;4.60;3.13;;;23.60;36.50;;;;;;5024339;28;20512;-50
2022/03/29 07:13:45;;;;;;;5.95;3.92;;;23.60;36.40;;;;;;5024395;28;20034;-51
2022/03/29 07:16:14;;;;;;;6.90;4.28;;;23.60;36.40;;;;;;5024309;28;20036;-49
2022/03/29 07:18:40;;;;;;;5.85;3.65;;;23.60;36.40;;;;;;5024130;28;20101;-51
2022/03/29 07:21:06;;;;;;;6.07;4.32;;;23.70;36.50;;;;;;5023887;28;20037;-50
2022/03/29 07:23:32;;;;;;;6.47;3.83;;;23.70;36.50;;;;;;5024245;28;20057;-50
2022/03/29 07:25:58;;;;;;;6.22;3.97;;;23.70;36.40;;;;;;5024660;28;20103;-51
2022/03/29 07:28:24;;;;;;;5.32;3.72;;;23.60;36.40;;;;;;5024811;28;20026;-50
2022/03/29 07:30:51;;;;;;;5.40;3.50;;;23.70;36.40;;;;;;5025295;28;20033;-51
2022/03/29 07:33:18;;;;;;;5.70;4.10;;;23.70;36.40;;;;;;5006579;28;20440;-51
2022/03/29 07:35:45;;;;;;;5.88;3.70;;;23.70;36.30;;;;;;5024788;28;20034;-52
2022/03/29 07:38:12;;;;;;;5.55;3.40;;;23.70;36.40;;;;;;5023881;28;20039;-50
2022/03/29 07:40:39;;;;;;;5.50;4.03;;;23.70;36.30;;;;;;5024125;28;20461;-50
2022/03/29 07:43:06;;;;;;;5.95;4.25;;;23.70;36.30;;;;;;5024087;28;20030;-53
2022/03/29 07:45:32;;;;;;;5.72;3.75;;;23.70;36.30;;;;;;5010329;28;20516;-50
2022/03/29 07:47:58;;;;;;;5.63;4.07;;;23.70;36.20;;;;;;5023491;28;20602;-51
2022/03/29 07:50:26;;;;;;;5.70;4.00;;;23.70;36.20;;;;;;5023643;28;20451;-51
2022/03/29 07:52:53;;;;;;;5.60;3.78;;;23.70;36.20;;;;;;5026477;28;20111;-51
2022/03/29 07:55:19;;;;;;;5.82;3.72;;;23.70;36.20;;;;;;5010566;28;20109;-50
2022/03/29 07:57:45;;;;;;;5.10;3.50;;;23.70;36.20;;;;;;5028245;28;20475;-51
2022/03/29 08:00:31;;;;;;;5.35;3.38;;;23.70;36.20;;;;;;5010036;28;20040;-51
2022/03/29 08:03:19;;;;;;;6.35;4.20;;;23.70;36.20;;;;;;5028342;28;20095;-50
2022/03/29 08:05:47;;;;;;;5.45;3.83;;;23.70;36.20;;;;;;5028063;28;20031;-50
2022/03/29 08:08:14;;;;;;;6.28;3.17;;;23.70;36.20;;;;;;5028295;28;20404;-50
2022/03/29 08:10:41;;;;;;;4.85;3.42;;;23.70;36.20;;;;;;5027795;28;20033;-50
2022/03/29 08:13:08;;;;;;;6.53;3.88;;;23.70;36.80;;;;;;5027947;28;20045;-52
2022/03/29 08:15:35;;;;;;;5.55;3.70;;;23.70;36.20;;;;;;5027643;28;20041;-50
2022/03/29 08:18:01;;;;;;;5.53;3.72;;;23.70;36.20;;;;;;5027738;28;20481;-50
2022/03/29 08:20:29;;;;;;;5.25;3.97;;;23.70;36.20;;;;;;5027912;28;20025;-49
2022/03/29 08:23:00;;;;;;;6.03;3.20;;;23.70;36.20;;;;;;5010030;28;20112;-50
2022/03/29 08:25:29;;;;;;;6.03;3.85;;;23.70;36.20;;;;;;5028051;28;20018;-51
2022/03/29 08:27:56;;;;;;;4.32;3.00;;;23.70;36.20;;;;;;5027637;28;20043;-50
2022/03/29 08:30:23;;;;;;;5.53;3.53;;;23.70;36.20;;;;;;5027329;28;20405;-50
2022/03/29 08:32:49;;;;;;;6.55;3.78;;;23.70;36.20;;;;;;5027784;28;20067;-51
2022/03/29 08:35:15;;;;;;;5.00;3.58;;;23.70;36.10;;;;;;5027889;28;20065;-50
2022/03/29 08:37:41;;;;;;;5.15;3.65;;;23.70;36.10;;;;;;5027586;28;20068;-52
2022/03/29 08:40:13;;;;;;;5.47;3.60;;;23.70;36.10;;;;;;5009853;28;20069;-50
2022/03/29 08:42:42;;;;;;;6.03;3.60;;;23.70;36.10;;;;;;5009287;28;20029;-50
2022/03/29 08:45:10;;;;;;;6.05;3.28;;;23.70;36.10;;;;;;5009196;28;20101;-51
2022/03/29 08:47:36;;;;;;;5.15;3.47;;;23.70;36.10;;;;;;5027431;28;20074;-50
2022/03/29 08:50:06;;;;;;;5.25;3.58;;;23.70;36.10;;;;;;5027114;28;20031;-49
2022/03/29 08:52:33;;;;;;;5.55;3.42;;;23.70;36.10;;;;;;5027095;28;20033;-49
2022/03/29 08:55:03;;;;;;;4.97;3.72;;;23.70;36.10;;;;;;5009493;28;20045;-51
2022/03/29 08:57:31;;;;;;;4.47;3.08;;;23.70;36.10;;;;;;5027899;28;20017;-51
2022/03/29 08:59:57;;;;;;;4.28;3.20;;;23.70;36.20;;;;;;5009005;28;20060;-50
2022/03/29 09:02:23;;;;;;;5.20;3.72;;;23.70;36.20;;;;;;5008880;28;20034;-50
2022/03/29 09:05:15;;;;;;;4.43;3.13;;;23.70;36.20;;;;;;5027316;28;20060;-50
2022/03/29 09:07:54;;;;;;;4.63;2.95;;;23.70;36.20;;;;;;5008913;28;20723;-50
2022/03/29 09:10:22;;;;;;;4.70;3.33;;;23.70;36.80;;;;;;5026208;28;20056;-50
2022/03/29 09:12:47;;;;;;;4.35;3.03;;;23.70;36.10;;;;;;5027081;28;20626;-51
2022/03/29 09:15:13;;;;;;;4.80;3.20;;;23.70;36.10;;;;;;5026946;28;20112;-49
2022/03/29 09:17:45;;;;;;;4.38;2.92;;;23.60;36.00;;;;;;5026715;28;20025;-50
2022/03/29 09:20:22;;;;;;;4.60;3.13;;;23.60;36.10;;;;;;5007759;28;20021;-51
2022/03/29 09:22:52;;;;;;;4.90;3.22;;;23.70;36.10;;;;;;5026568;28;20021;-49
2022/03/29 09:25:36;;;;;;;4.28;3.00;;;23.60;36.10;;;;;;5027207;28;20608;-50
2022/03/29 09:28:04;;;;;;;4.70;3.40;;;23.60;36.00;;;;;;5026211;28;20079;-50
2022/03/29 09:30:50;;;;;;;4.60;3.17;;;23.70;36.10;;;;;;5026413;28;20025;-49
2022/03/29 09:33:29;;;;;;;5.13;3.30;;;23.60;36.10;;;;;;5027010;28;20064;-50
2022/03/29 09:35:56;;;;;;;5.40;3.55;;;23.70;36.10;;;;;;4989406;28;20500;-51
2022/03/29 09:38:24;;;;;;;4.55;3.08;;;23.60;36.00;;;;;;5015140;28;20029;-52
2022/03/29 09:40:50;;;;;;;4.00;2.85;;;23.60;36.10;;;;;;5025950;28;20457;-51
2022/03/29 09:43:16;;;;;;;4.85;3.20;;;23.60;36.10;;;;;;5008746;28;20045;-51
2022/03/29 09:45:47;;;;;;;5.50;3.58;;;23.60;36.00;;;;;;5026492;28;20022;-50
2022/03/29 09:48:25;;;;;;;4.15;2.85;;;23.60;36.00;;;;;;5026560;28;20450;-51
2022/03/29 09:50:57;;;;;;;5.18;3.10;;;23.60;36.10;;;;;;5026042;28;20025;-51
2022/03/29 09:53:45;;;;;;;5.13;3.17;;;23.60;36.00;;;;;;5026014;28;20057;-50
2022/03/29 09:56:16;;;;;;;5.07;3.22;;;23.60;36.10;;;;;;5025924;28;20504;-49
2022/03/29 09:58:42;;;;;;;4.50;3.15;;;23.60;36.00;;;;;;5025713;28;20493;-50
2022/03/29 10:01:25;;;;;;;3.80;2.55;;;23.60;36.00;;;;;;5025462;28;20033;-50
2022/03/29 10:03:54;;;;;;;5.25;2.58;;;23.60;36.10;;;;;;5025980;28;20041;-51
2022/03/29 10:06:22;;;;;;;3.90;2.67;;;23.60;36.10;;;;;;5025581;28;20118;-51
2022/03/29 10:11:35;;;;;;;4.40;2.80;;;23.60;36.00;;;;;;5025733;28;20025;-49
2022/03/29 10:14:02;;;;;;;4.05;2.60;;;23.60;36.40;;;;;;5025717;28;20116;-49
2022/03/29 10:16:28;;;;;;;4.22;2.97;;;23.60;36.10;;;;;;5025646;28;20025;-50
2022/03/29 10:18:55;;;;;;;3.55;2.35;;;23.60;36.10;;;;;;5007687;28;20048;-50
2022/03/29 10:21:21;;;;;;;4.50;3.00;;;23.60;36.10;;;;;;5025956;28;20566;-51
2022/03/29 10:23:51;;;;;;;3.83;2.38;;;23.60;36.10;;;;;;5025588;28;20477;-49
2022/03/29 10:26:23;;;;;;;3.67;2.28;;;23.60;36.10;;;;;;5025677;28;20041;-50
2022/03/29 10:28:49;;;;;;;3.95;2.80;;;23.60;36.10;;;;;;5007145;28;20053;-49
2022/03/29 10:31:30;;;;;;;4.25;2.80;;;23.60;36.10;;;;;;4991800;28;20029;-51
2022/03/29 10:34:13;;;;;;;4.20;2.55;;;23.60;36.10;;;;;;5025044;28;20417;-51
2022/03/29 10:37:13;;;;;;;4.35;2.47;;;23.60;36.10;;;;;;5025761;28;20029;-50
2022/03/29 10:40:04;;;;;;;4.07;2.60;;;23.60;36.10;;;;;;5024984;28;20743;-52
2022/03/29 10:42:39;;;;;;;4.75;2.80;;;23.60;36.10;;;;;;5025519;28;20021;-50
2022/03/29 10:45:18;;;;;;;3.65;2.58;;;23.60;36.10;;;;;;5025146;28;20045;-51
2022/03/29 10:47:47;;;;;;;4.07;2.40;;;23.60;36.20;;;;;;5025396;28;20021;-51
2022/03/29 10:50:14;;;;;;;4.22;2.53;;;23.60;36.20;;;;;;5025480;28;20327;-52
2022/03/29 10:52:48;;;;;;;4.07;2.90;;;23.60;36.20;;;;;;5024814;28;20056;-51
2022/03/29 10:55:15;;;;;;;3.67;2.38;;;23.60;36.20;;;;;;5025528;28;20037;-51
2022/03/29 10:58:02;;;;;;;3.70;2.28;;;23.60;36.20;;;;;;5024863;28;20544;-50
2022/03/29 11:00:31;;;;;;;4.80;2.58;;;23.60;36.20;;;;;;5024947;28;20021;-51
2022/03/29 11:03:15;;;;;;;4.20;2.08;;;23.70;36.30;;;;;;5025234;28;20025;-51
2022/03/29 11:06:10;;;;;;;4.00;2.45;;;23.60;36.30;;;;;;5024246;28;20034;-49
2022/03/29 11:08:46;;;;;;;3.65;2.50;;;23.60;36.20;;;;;;5006933;28;20017;-50
2022/03/29 11:11:39;;;;;;;3.85;2.50;;;23.70;36.30;;;;;;5006553;28;20037;-50
2022/03/29 11:14:27;;;;;;;4.60;2.33;;;23.70;36.30;;;;;;5025195;28;20040;-51
2022/03/29 11:17:13;;;;;;;4.05;2.50;;;23.70;36.30;;;;;;5006459;28;20029;-50
2022/03/29 11:19:51;;;;;;;3.55;2.30;;;23.70;36.30;;;;;;5006577;28;20509;-50
2022/03/29 11:22:34;;;;;;;4.32;2.80;;;23.70;36.40;;;;;;5024661;28;20433;-50
2022/03/29 11:25:02;;;;;;;;;;;23.70;36.40;;;;;;5024798;28;20636;-51
2022/03/29 11:27:34;;;;;;;3.58;2.30;;;23.80;36.30;;;;;;5023852;28;19913;-50
2022/03/29 11:30:20;;;;;;;3.63;2.00;;;23.70;36.20;;;;;;5024910;28;20021;-50
2022/03/29 11:32:46;;;;;;;3.90;2.40;;;23.80;36.40;;;;;;5024511;28;20029;-50
2022/03/29 11:35:12;;;;;;;3.60;2.20;;;23.80;36.30;;;;;;5024393;28;20087;-49
2022/03/29 11:37:45;;;;;;;3.72;2.35;;;23.80;36.20;;;;;;5024825;28;20029;-50
2022/03/29 11:40:13;;;;;;;3.20;2.10;;;23.70;36.20;;;;;;5024533;28;20033;-50
2022/03/29 11:42:46;;;;;;;3.78;2.15;;;23.80;36.20;;;;;;5024823;28;20029;-51
2022/03/29 11:45:13;;;;;;;3.20;2.03;;;23.80;36.10;;;;;;5024478;28;20022;-49
2022/03/29 11:47:46;;;;;;;3.45;2.35;;;23.80;36.10;;;;;;5006798;28;20026;-50
2022/03/29 11:50:12;;;;;;;;;;;23.80;36.20;;;;;;5024575;28;20028;-50
2022/03/29 11:52:38;;;;;;;3.20;2.03;;;23.80;36.20;;;;;;5023618;28;20022;-50
2022/03/29 11:55:25;;;;;;;3.58;2.40;;;23.80;36.20;;;;;;5023686;28;20041;-49
2022/03/29 11:57:51;;;;;;;3.58;2.15;;;23.80;36.20;;;;;;5024087;28;20043;-50
2022/03/29 12:00:26;;;;;;;3.30;2.00;;;23.80;36.20;;;;;;5022632;28;20214;-50
2022/03/29 12:02:52;;;;;;;3.40;2.20;;;23.80;36.20;;;;;;5024027;28;20022;-50
2022/03/29 12:05:27;;;;;;;3.70;2.05;;;23.80;36.10;;;;;;5023977;28;20041;-51
2022/03/29 12:07:58;;;;;;;3.20;2.00;;;23.80;36.20;;;;;;5005619;28;20041;-50
2022/03/29 12:10:29;;;;;;;4.63;2.05;;;23.90;36.20;;;;;;5024054;28;20159;-50
2022/03/29 12:12:55;;;;;;;3.70;2.35;;;23.90;36.30;;;;;;5023667;28;20029;-50
2022/03/29 12:15:22;;;;;;;3.60;2.22;;;23.90;36.40;;;;;;5024251;28;20539;-51
2022/03/29 12:20:47;;;;;;;2.72;2.00;;;23.90;36.40;;;;;;5023842;28;20551;-51
2022/03/29 12:23:18;;;;;;;3.55;2.22;;;23.90;36.50;;;;;;5023642;28;20061;-51
2022/03/29 12:25:47;;;;;;;3.08;1.83;;;23.90;36.40;;;;;;5024268;28;20026;-50
2022/03/29 12:28:13;;;;;;;4.05;2.17;;;24.00;36.40;;;;;;5024085;28;20517;-50
2022/03/29 12:30:40;;;;;;;2.85;1.92;;;24.00;36.30;;;;;;5023675;28;20037;-50
2022/03/29 12:33:06;;;;;;;3.65;2.30;;;24.00;36.30;;;;;;5023871;28;20124;-51
2022/03/29 12:35:33;;;;;;;3.65;2.35;;;24.00;36.30;;;;;;5024037;28;20034;-51
2022/03/29 12:38:09;;;;;;;3.20;1.90;;;24.10;36.40;;;;;;5024679;28;20029;-49
2022/03/29 12:40:34;;;;;;;3.38;2.10;;;24.10;36.30;;;;;;5027297;28;20068;-51
2022/03/29 12:43:05;;;;;;;3.00;1.90;;;24.10;36.30;;;;;;5009941;28;20183;-50
2022/03/29 12:45:34;;;;;;;3.78;2.30;;;24.10;36.30;;;;;;5027496;28;20040;-51
2022/03/29 12:48:02;;;;;;;3.03;1.80;;;24.10;36.30;;;;;;5009176;28;20548;-51
2022/03/29 12:50:28;;;;;;;3.25;2.05;;;24.10;36.30;;;;;;5026762;28;20045;-51
2022/03/29 12:53:03;;;;;;;3.55;2.00;;;24.10;36.30;;;;;;5009411;28;20524;-51
2022/03/29 12:55:31;;;;;;;3.28;2.13;;;24.20;36.30;;;;;;5027080;28;20049;-51
2022/03/29 12:58:02;;;;;;;2.95;1.80;;;24.20;36.30;;;;;;5009210;28;20029;-50
2022/03/29 13:00:39;;;;;;;3.55;2.20;;;24.20;36.20;;;;;;5026398;28;20084;-51
2022/03/29 13:03:08;;;;;;;3.72;2.10;;;24.20;36.20;;;;;;5026572;28;20017;-50
2022/03/29 13:05:35;;;;;;;4.07;2.10;;;24.20;36.10;;;;;;5008294;28;20273;-51
2022/03/29 13:08:01;;;;;;;5.00;2.75;;;24.30;35.50;;;;;;5025419;28;20021;-51